createdAt,value
2023-11-01T17:08:27.499Z,97.83
2023-11-01T17:10:54.421Z,100.00
2023-11-01T17:13:22.057Z,100.00
2023-11-01T17:15:49.031Z,100.00
2023-11-01T17:18:16.161Z,100.00
2023-11-01T17:20:43.060Z,100.00
2023-11-01T17:23:10.311Z,100.00
2023-11-01T17:26:10.496Z,100.00
2023-11-01T17:28:39.095Z,100.00
2023-11-01T17:31:12.508Z,100.00
2023-11-01T17:33:41.409Z,100.00
2023-11-01T17:36:20.444Z,100.00
2023-11-01T17:38:47.514Z,100.00
2023-11-01T17:41:50.499Z,100.00
2023-11-01T17:44:19.996Z,100.00
2023-11-01T17:47:05.446Z,100.00
2023-11-01T17:49:56.179Z,100.00
2023-11-01T17:52:36.304Z,100.00
2023-11-01T17:55:06.477Z,100.00
2023-11-01T18:00:02.722Z,100.00
2023-11-01T18:03:22.195Z,100.00
2023-11-01T18:05:49.935Z,100.00
2023-11-01T18:08:19.278Z,100.00
2023-11-01T18:10:48.678Z,100.00
2023-11-01T18:13:21.343Z,100.00
2023-11-01T18:15:50.844Z,100.00
2023-11-01T18:18:40.306Z,100.00
2023-11-01T18:21:09.357Z,100.00
2023-11-01T18:23:36.421Z,100.00
2023-11-01T18:26:12.482Z,100.00
2023-11-01T18:28:42.160Z,100.00
2023-11-01T18:31:15.977Z,100.00
2023-11-01T18:33:49.828Z,100.00
2023-11-01T18:36:17.320Z,99.92
2023-11-01T18:38:50.303Z,99.94
2023-11-01T18:41:17.394Z,99.89
2023-11-01T18:43:45.342Z,99.94
2023-11-01T18:46:17.668Z,99.90
2023-11-01T18:48:47.709Z,99.75
2023-11-01T18:51:55.645Z,99.26
2023-11-01T18:54:22.755Z,99.33
2023-11-01T18:56:49.650Z,98.84
2023-11-01T18:59:30.372Z,98.92
2023-11-01T19:02:00.171Z,98.86
2023-11-01T19:04:28.352Z,98.87
2023-11-01T19:06:55.857Z,98.74
2023-11-01T19:09:23.753Z,98.63
2023-11-01T19:11:53.587Z,98.61
2023-11-01T19:14:20.522Z,98.54
2023-11-01T19:16:47.660Z,98.18
2023-11-01T19:19:18.223Z,98.00
2023-11-01T19:21:45.274Z,97.91
2023-11-01T19:24:12.120Z,97.54
2023-11-01T19:26:39.069Z,97.29
2023-11-01T19:29:06.279Z,97.45
2023-11-01T19:31:33.072Z,97.30
2023-11-01T19:34:00.062Z,97.38
2023-11-01T19:36:31.382Z,97.19
2023-11-01T19:38:58.175Z,96.98
2023-11-01T19:41:25.547Z,97.06
2023-11-01T19:43:59.691Z,96.84
2023-11-01T19:46:27.170Z,97.24
2023-11-01T19:48:54.040Z,97.01
2023-11-01T19:51:21.158Z,96.51
2023-11-01T19:53:56.792Z,96.47
2023-11-01T19:56:24.715Z,96.91
2023-11-01T19:58:51.470Z,96.82
2023-11-01T20:01:18.297Z,96.60
2023-11-01T20:03:45.179Z,96.56
2023-11-01T20:06:12.214Z,96.28
2023-11-01T20:08:38.965Z,96.19
2023-11-01T20:11:07.460Z,96.33
2023-11-01T20:13:34.289Z,96.06
2023-11-01T20:16:01.206Z,96.22
2023-11-01T20:18:28.134Z,96.19
2023-11-01T20:20:55.327Z,95.66
2023-11-01T20:23:22.587Z,95.96
2023-11-01T20:25:49.401Z,95.80
2023-11-01T20:28:19.633Z,95.92
2023-11-01T20:30:47.638Z,95.62
2023-11-01T20:33:17.326Z,95.98
2023-11-01T20:35:44.795Z,95.64
2023-11-01T20:38:11.629Z,95.41
2023-11-01T20:40:40.509Z,95.64
2023-11-01T20:43:13.815Z,95.51
2023-11-01T20:45:42.665Z,95.41
2023-11-01T20:48:10.627Z,95.68
2023-11-01T20:50:38.230Z,95.67
2023-11-01T20:53:05.196Z,95.42
2023-11-01T20:55:32.682Z,95.68
2023-11-01T20:57:59.466Z,95.15
2023-11-01T21:00:42.321Z,95.51
2023-11-01T21:03:10.758Z,95.25
2023-11-01T21:05:37.585Z,95.33
2023-11-01T21:08:06.947Z,94.99
2023-11-01T21:10:34.065Z,94.90
2023-11-01T21:13:01.184Z,95.02
2023-11-01T21:15:28.094Z,94.99
2023-11-01T21:17:57.607Z,95.10
2023-11-01T21:20:25.832Z,95.10
2023-11-01T21:22:52.601Z,95.07
2023-11-01T21:25:20.965Z,94.94
2023-11-01T21:27:47.896Z,94.84
2023-11-01T21:30:15.471Z,94.66
2023-11-01T21:32:44.197Z,94.76
2023-11-01T21:35:11.065Z,94.85
2023-11-01T21:37:39.660Z,94.70
2023-11-01T21:40:20.966Z,94.63
2023-11-01T21:42:47.829Z,94.78
2023-11-01T21:45:17.705Z,94.61
2023-11-01T21:47:44.603Z,94.75
2023-11-01T21:50:49.112Z,94.41
2023-11-01T21:53:17.509Z,94.57
2023-11-01T21:55:55.309Z,94.35
2023-11-01T21:58:26.342Z,94.65
2023-11-01T22:00:56.847Z,94.65
2023-11-01T22:03:36.660Z,94.53
2023-11-01T22:06:05.677Z,94.71
2023-11-01T22:08:55.207Z,94.53
2023-11-01T22:11:24.840Z,94.37
2023-11-01T22:13:55.293Z,93.88
2023-11-01T22:16:28.265Z,94.27
2023-11-01T22:18:57.122Z,94.32
2023-11-01T22:21:24.632Z,94.31
2023-11-01T22:23:53.206Z,94.17
2023-11-01T22:26:27.046Z,94.06
2023-11-01T22:28:54.222Z,94.02
2023-11-01T22:31:43.659Z,93.62
2023-11-01T22:34:12.025Z,93.91
2023-11-01T22:36:46.637Z,93.72
2023-11-01T22:39:41.498Z,93.89
2023-11-01T22:42:12.392Z,93.79
2023-11-01T22:44:39.761Z,93.90
2023-11-01T22:47:07.817Z,94.00
2023-11-01T22:49:38.182Z,94.00
2023-11-01T22:52:05.830Z,93.91
2023-11-01T22:54:33.152Z,93.82
2023-11-01T22:57:00.296Z,93.71
2023-11-01T22:59:28.454Z,93.59
2023-11-01T23:01:58.642Z,93.46
2023-11-01T23:04:25.726Z,93.77
2023-11-01T23:06:55.152Z,93.66
2023-11-01T23:09:22.006Z,93.48
2023-11-01T23:11:48.914Z,93.60
2023-11-01T23:14:15.745Z,93.49
2023-11-01T23:16:44.059Z,93.58
2023-11-01T23:19:13.316Z,93.76
2023-11-01T23:21:40.387Z,93.52
2023-11-01T23:24:11.414Z,93.60
2023-11-01T23:26:55.140Z,93.90
2023-11-01T23:29:30.423Z,93.83
2023-11-01T23:32:01.383Z,93.79
2023-11-01T23:34:49.812Z,93.49
2023-11-01T23:37:36.446Z,93.69
2023-11-01T23:40:07.886Z,93.56
2023-11-01T23:42:38.328Z,93.52
2023-11-01T23:45:26.770Z,93.27
2023-11-01T23:48:02.872Z,93.41
2023-11-01T23:50:34.549Z,93.39
2023-11-01T23:53:04.047Z,93.60
2023-11-01T23:55:31.411Z,93.39
2023-11-01T23:58:00.273Z,93.71
